Time;durP1;ratioP1;P1;durP2;ratioP2;P2;SDS_P1;SDS_P2;PMS_P1;PMS_P2;Temp;Humidity;BMP_temperature;BMP_pressure;BME280_temperature;BME280_humidity;BME280_pressure;Samples;Min_cycle;Max_cycle;Signal;HPM_P1;HPM_P2
2022/10/07 00:03:01;;;;;;;4.03;1.85;;;;;;;7.65;100.00;99689.31;15279320;19;20387;-76
2022/10/07 00:08:26;;;;;;;3.55;1.90;;;;;;;7.65;100.00;99688.44;15283191;19;20019;-74
2022/10/07 00:13:56;;;;;;;3.65;1.52;;;;;;;7.60;100.00;99683.41;15286294;19;20010;-77
2022/10/07 00:19:21;;;;;;;5.82;1.90;;;;;;;7.58;100.00;99679.13;15284494;19;20024;-76
2022/10/07 00:24:52;;;;;;;3.70;1.85;;;;;;;7.58;100.00;99676.44;15318766;19;20031;-74
2022/10/07 00:30:11;;;;;;;6.28;1.80;;;;;;;7.55;100.00;99674.84;15307305;19;20026;-75
2022/10/07 00:35:43;;;;;;;4.25;1.70;;;;;;;7.51;100.00;99667.97;15271434;19;20153;-74
2022/10/07 00:41:10;;;;;;;5.35;2.05;;;;;;;7.48;100.00;99655.66;15276096;19;20014;-75
2022/10/07 00:46:42;;;;;;;5.70;2.38;;;;;;;7.43;100.00;99657.81;15275182;19;20021;-75
2022/10/07 00:52:07;;;;;;;5.32;1.90;;;;;;;7.40;100.00;99655.38;15278101;19;20010;-77
2022/10/07 00:57:36;;;;;;;4.85;1.88;;;;;;;7.35;100.00;99644.94;15273986;19;20024;-74
2022/10/07 01:03:05;;;;;;;3.55;1.80;;;;;;;7.34;100.00;99643.25;15281523;19;20070;-76
2022/10/07 01:08:31;;;;;;;4.82;2.00;;;;;;;7.27;100.00;99639.28;15273539;19;20024;-76
2022/10/07 01:14:06;;;;;;;5.40;1.98;;;;;;;7.23;100.00;99629.78;15279969;19;20032;-76
2022/10/07 01:19:53;;;;;;;5.93;2.08;;;;;;;7.21;100.00;99623.66;15274209;19;20015;-76
2022/10/07 01:25:34;;;;;;;6.03;2.30;;;;;;;7.21;100.00;99619.13;15288861;19;20452;-78
2022/10/07 01:31:07;;;;;;;4.90;1.92;;;;;;;7.15;100.00;99614.22;15284143;19;20018;-80
2022/10/07 01:36:36;;;;;;;3.38;1.90;;;;;;;7.11;100.00;99603.84;15288458;19;20042;-77
2022/10/07 01:42:02;;;;;;;4.18;2.05;;;;;;;7.04;100.00;99598.91;15282616;19;20015;-78
2022/10/07 01:47:30;;;;;;;5.95;2.20;;;;;;;6.99;100.00;99581.44;15284941;19;20014;-78
2022/10/07 01:53:11;;;;;;;4.45;2.00;;;;;;;6.93;100.00;99591.66;15302319;19;20038;-81
2022/10/07 01:58:54;;;;;;;5.50;2.10;;;;;;;6.86;100.00;99584.16;15300320;19;20014;-81
2022/10/07 02:04:42;;;;;;;6.20;2.15;;;;;;;6.81;100.00;99580.94;15295954;19;20609;-84
2022/10/07 02:10:23;;;;;;;32.63;20.33;;;;;;;6.72;100.00;99577.06;15289301;19;20003;-82
2022/10/07 02:15:55;;;;;;;6.53;2.47;;;;;;;6.66;100.00;99570.34;15296448;19;20533;-81
2022/10/07 02:21:28;;;;;;;4.55;2.10;;;;;;;6.61;100.00;99559.94;15303045;19;20015;-81
2022/10/07 02:26:57;;;;;;;5.38;2.47;;;;;;;6.54;100.00;99557.81;15297311;19;20018;-81
2022/10/07 02:32:28;;;;;;;6.23;2.40;;;;;;;6.47;100.00;99550.22;15297812;19;20094;-83
2022/10/07 02:38:06;;;;;;;4.45;2.50;;;;;;;6.45;100.00;99537.91;15293446;19;20267;-80
2022/10/07 02:43:37;;;;;;;4.75;2.60;;;;;;;6.39;100.00;99533.84;15295918;19;20010;-79
2022/10/07 02:49:08;;;;;;;5.55;2.65;;;;;;;6.33;100.00;99531.56;15299738;19;20011;-81
2022/10/07 02:54:44;;;;;;;4.18;2.42;;;;;;;6.28;100.00;99523.88;15306758;19;20018;-83
2022/10/07 03:00:13;;;;;;;6.22;2.50;;;;;;;6.22;100.00;99526.97;15303356;19;20042;-80
2022/10/07 03:05:38;;;;;;;5.72;2.33;;;;;;;6.14;100.00;99530.19;15296635;19;20027;-81
2022/10/07 03:11:06;;;;;;;5.03;2.60;;;;;;;6.08;100.00;99521.72;15293772;19;20018;-82
2022/10/07 03:16:32;;;;;;;6.63;2.80;;;;;;;6.00;100.00;99523.09;15286104;19;20098;-79
2022/10/07 03:21:57;;;;;;;5.10;2.55;;;;;;;5.96;100.00;99521.56;15286972;19;20010;-79
2022/10/07 03:27:27;;;;;;;4.78;2.65;;;;;;;5.91;100.00;99509.47;15285425;19;20019;-82
2022/10/07 03:32:56;;;;;;;5.43;2.80;;;;;;;5.85;100.00;99516.94;15287202;19;20289;-79
2022/10/07 03:38:21;;;;;;;4.93;2.60;;;;;;;5.79;100.00;99514.69;15288632;19;20361;-78
2022/10/07 03:49:42;;;;;;;4.80;2.83;;;;;;;5.68;100.00;99501.19;15352745;19;20010;-82
2022/10/07 03:55:09;;;;;;;5.25;3.10;;;;;;;5.63;100.00;99503.31;15286748;19;20042;-77
2022/10/07 04:00:36;;;;;;;6.88;3.00;;;;;;;5.55;100.00;99491.31;15286900;19;20005;-77
2022/10/07 04:11:47;;;;;;;5.45;3.30;;;;;;;5.48;100.00;99497.16;15345409;19;19991;-82
2022/10/07 04:17:13;;;;;;;5.68;3.20;;;;;;;5.42;100.00;99489.53;15291154;19;20365;-80
2022/10/07 04:22:39;;;;;;;5.32;3.35;;;;;;;5.37;100.00;99476.50;15292766;19;20027;-80
2022/10/07 04:28:10;;;;;;;4.88;3.33;;;;;;;5.31;100.00;99483.09;15294045;19;20739;-81
2022/10/07 04:33:42;;;;;;;5.97;3.30;;;;;;;5.28;100.00;99471.75;15287911;19;20018;-81
2022/10/07 04:39:12;;;;;;;8.52;3.63;;;;;;;5.22;100.00;99471.22;15287873;19;20022;-82
2022/10/07 04:44:43;;;;;;;5.80;3.10;;;;;;;5.17;100.00;99469.81;15289785;19;20495;-82
2022/10/07 04:50:08;;;;;;;4.45;3.10;;;;;;;5.10;100.00;99461.34;15284586;19;20024;-81
2022/10/07 04:55:38;;;;;;;6.57;3.33;;;;;;;5.05;100.00;99455.44;15292151;19;20019;-82
2022/10/07 05:01:08;;;;;;;6.88;3.13;;;;;;;4.98;100.00;99449.63;15295951;19;20011;-80
2022/10/07 05:06:33;;;;;;;7.00;3.15;;;;;;;4.90;100.00;99442.13;15294896;19;20090;-80
2022/10/07 05:12:01;;;;;;;5.40;2.92;;;;;;;4.85;100.00;99444.25;15294227;19;20025;-78
2022/10/07 05:17:30;;;;;;;6.72;3.20;;;;;;;4.84;100.00;99441.66;15284439;19;20018;-79
2022/10/07 05:22:56;;;;;;;9.85;3.53;;;;;;;4.81;100.00;99440.06;15300851;19;20037;-79
2022/10/07 05:28:22;;;;;;;7.05;3.33;;;;;;;4.81;100.00;99450.75;15304640;19;20019;-79
2022/10/07 05:33:50;;;;;;;7.15;3.30;;;;;;;4.78;100.00;99437.56;15299869;19;20018;-79
2022/10/07 05:39:14;;;;;;;5.68;3.22;;;;;;;4.76;100.00;99444.84;15299290;19;20094;-80
2022/10/07 05:44:46;;;;;;;5.53;3.20;;;;;;;4.74;100.00;99431.59;15300543;19;20010;-80
2022/10/07 05:50:14;;;;;;;6.15;3.40;;;;;;;4.72;100.00;99435.31;15291539;19;20010;-82
2022/10/07 05:55:40;;;;;;;7.00;3.38;;;;;;;4.72;100.00;99438.84;15289430;19;20014;-78
2022/10/07 06:01:07;;;;;;;5.88;3.30;;;;;;;4.76;100.00;99434.19;15286285;19;20427;-82
2022/10/07 06:06:35;;;;;;;7.30;3.38;;;;;;;4.79;100.00;99439.28;15291011;19;20031;-80
2022/10/07 06:17:41;;;;;;;7.15;3.28;;;;;;;4.87;100.00;99431.66;15297759;19;20019;-77
2022/10/07 06:23:09;;;;;;;4.93;3.50;;;;;;;4.93;100.00;99425.91;15295380;19;20019;-81
2022/10/07 06:28:35;;;;;;;6.50;3.38;;;;;;;4.99;100.00;99426.47;15286349;19;20031;-79
2022/10/07 06:34:07;;;;;;;10.32;3.95;;;;;;;5.07;100.00;99426.81;15291679;19;20405;-77
2022/10/07 06:39:35;;;;;;;6.53;3.28;;;;;;;5.15;100.00;99424.47;15285959;19;20007;-78
2022/10/07 06:45:00;;;;;;;5.20;2.83;;;;;;;5.23;100.00;99426.66;15288869;19;20484;-78
2022/10/07 06:50:25;;;;;;;6.15;3.30;;;;;;;5.34;100.00;99428.63;15297172;19;20010;-82
2022/10/07 06:55:53;;;;;;;8.05;3.10;;;;;;;5.42;100.00;99426.28;15323679;19;20054;-78
2022/10/07 07:01:19;;;;;;;5.55;2.67;;;;;;;5.57;100.00;99426.19;15306690;19;20480;-81
2022/10/07 07:06:45;;;;;;;4.20;2.63;;;;;;;5.71;100.00;99431.44;15279859;19;20018;-82
2022/10/07 07:12:13;;;;;;;5.10;2.47;;;;;;;5.81;100.00;99437.91;15279289;19;20396;-81
2022/10/07 07:17:39;;;;;;;4.63;2.35;;;;;;;5.97;100.00;99437.69;15281578;19;20339;-80
2022/10/07 07:23:07;;;;;;;5.13;2.30;;;;;;;6.14;100.00;99428.50;15279782;19;20022;-80
2022/10/07 07:28:35;;;;;;;3.83;2.00;;;;;;;6.35;100.00;99430.63;15288481;19;20035;-79
2022/10/07 07:34:00;;;;;;;4.85;2.05;;;;;;;6.52;100.00;99420.53;15293211;19;20096;-80
2022/10/07 07:39:28;;;;;;;4.78;2.10;;;;;;;6.70;100.00;99413.84;15293323;19;20017;-79
2022/10/07 07:44:58;;;;;;;5.07;1.70;;;;;;;6.99;100.00;99408.16;15298000;19;20039;-81
2022/10/07 07:50:26;;;;;;;6.40;1.92;;;;;;;7.23;100.00;99396.56;15292489;19;20015;-78
2022/10/07 07:55:55;;;;;;;6.35;1.63;;;;;;;7.43;100.00;99386.16;15284395;19;20014;-79
2022/10/07 08:01:26;;;;;;;4.90;1.80;;;;;;;7.72;100.00;99374.00;15280019;19;20033;-78
2022/10/07 08:06:50;;;;;;;3.30;1.35;;;;;;;7.90;100.00;99368.19;15285170;19;20026;-78
2022/10/07 08:12:16;;;;;;;5.15;1.35;;;;;;;8.07;100.00;99356.13;15284030;19;20010;-82
2022/10/07 08:17:44;;;;;;;4.25;1.33;;;;;;;8.29;100.00;99355.25;15280920;19;20033;-78
2022/10/07 08:23:08;;;;;;;3.60;1.50;;;;;;;8.47;100.00;99347.56;15298771;19;20014;-82
2022/10/07 08:28:33;;;;;;;4.93;1.60;;;;;;;8.64;100.00;99348.88;15301470;19;20049;-79
2022/10/07 08:34:02;;;;;;;3.08;1.23;;;;;;;8.76;100.00;99341.63;15292376;19;20050;-82
2022/10/07 08:39:28;;;;;;;3.55;1.40;;;;;;;9.04;100.00;99333.09;15294034;19;20095;-83
2022/10/07 08:44:56;;;;;;;2.33;1.17;;;;;;;9.19;100.00;99322.88;15301923;19;20361;-79
2022/10/07 08:50:29;;;;;;;2.83;1.27;;;;;;;9.48;100.00;99308.78;15295828;19;20085;-80
2022/10/07 08:55:59;;;;;;;3.35;1.20;;;;;;;9.78;100.00;99302.59;15288850;19;20021;-79
2022/10/07 09:01:35;;;;;;;7.03;1.67;;;;;;;10.08;100.00;99306.22;15317183;19;20014;-83
2022/10/07 09:07:11;;;;;;;1.48;0.80;;;;;;;10.41;100.00;99301.53;15323385;19;20028;-81
2022/10/07 09:12:45;;;;;;;2.17;0.95;;;;;;;10.82;100.00;99285.25;15297301;19;20014;-81
2022/10/07 09:18:14;;;;;;;3.95;1.10;;;;;;;11.04;100.00;99286.00;15290082;19;20023;-82
2022/10/07 09:23:41;;;;;;;3.00;1.30;;;;;;;11.22;100.00;99272.63;15290447;19;20014;-82
2022/10/07 09:29:08;;;;;;;2.80;0.90;;;;;;;11.52;100.00;99257.22;15293813;19;20025;-81
2022/10/07 09:34:40;;;;;;;3.17;1.40;;;;;;;11.77;100.00;99253.00;15288694;19;20026;-82
2022/10/07 09:40:24;;;;;;;2.53;1.00;;;;;;;12.04;100.00;99245.09;15296000;19;20035;-79
2022/10/07 09:45:54;;;;;;;2.40;0.90;;;;;;;12.43;100.00;99242.16;15296168;19;20018;-81
2022/10/07 09:51:25;;;;;;;3.55;1.08;;;;;;;12.71;100.00;99236.69;15296408;19;20576;-82
2022/10/07 09:56:55;;;;;;;2.63;0.97;;;;;;;13.02;100.00;99229.00;15290747;19;20086;-81
2022/10/07 10:02:24;;;;;;;1.65;0.90;;;;;;;13.23;100.00;99228.63;15292493;19;20477;-80
2022/10/07 10:07:55;;;;;;;2.08;0.80;;;;;;;13.41;100.00;99216.94;15288328;19;20449;-78
2022/10/07 10:13:31;;;;;;;3.15;1.02;;;;;;;13.51;100.00;99212.25;15303806;19;20014;-77
2022/10/07 10:19:08;;;;;;;1.75;0.85;;;;;;;13.79;100.00;99206.66;15312844;19;20055;-79
2022/10/07 10:30:19;;;;;;;1.92;0.95;;;;;;;14.16;100.00;99191.03;15297781;19;20376;-81
2022/10/07 10:35:55;;;;;;;2.75;0.90;;;;;;;14.30;100.00;99178.69;15299963;19;20039;-79
2022/10/07 10:41:30;;;;;;;2.80;1.05;;;;;;;14.60;100.00;99173.66;15296170;19;20018;-79
2022/10/07 10:47:05;;;;;;;2.45;1.00;;;;;;;14.75;100.00;99161.13;15301912;19;20033;-78
2022/10/07 10:52:44;;;;;;;1.75;0.80;;;;;;;15.03;100.00;99157.22;15305330;19;20023;-78
2022/10/07 10:58:23;;;;;;;3.63;0.93;;;;;;;15.17;100.00;99142.06;15288760;19;20019;-80
2022/10/07 11:04:20;;;;;;;2.13;0.80;;;;;;;15.37;100.00;99123.53;15302089;19;20014;-81
2022/10/07 11:09:51;;;;;;;4.88;1.05;;;;;;;15.61;100.00;99116.31;15291866;19;20007;-81
2022/10/07 11:15:24;;;;;;;3.30;0.90;;;;;;;15.60;100.00;99103.75;15036606;19;5012967;-79
2022/10/07 11:20:49;;;;;;;1.83;0.80;;;;;;;15.71;100.00;99093.31;15295974;19;20470;-81
2022/10/07 11:26:26;;;;;;;2.53;0.90;;;;;;;15.83;100.00;99091.06;15291363;19;20015;-78
2022/10/07 11:31:58;;;;;;;2.78;1.00;;;;;;;15.88;100.00;99082.41;15299991;19;20023;-82
2022/10/07 11:37:38;;;;;;;2.42;0.90;;;;;;;15.92;100.00;99064.72;15301669;19;20038;-81
2022/10/07 11:43:10;;;;;;;2.33;0.90;;;;;;;16.11;100.00;99057.09;15285829;19;20046;-80
2022/10/07 11:48:43;;;;;;;2.80;0.70;;;;;;;16.42;100.00;99048.00;14777857;19;10001512;-82
2022/10/07 11:54:14;;;;;;;3.85;1.00;;;;;;;16.39;100.00;99026.63;15289455;19;20010;-81
2022/10/07 11:59:51;;;;;;;3.55;0.90;;;;;;;16.44;100.00;99018.75;15289149;19;20015;-82
2022/10/07 12:06:08;;;;;;;3.67;0.80;;;;;;;16.59;100.00;99010.59;15291341;19;20090;-81
2022/10/07 12:11:56;;;;;;;3.75;0.80;;;;;;;16.71;100.00;98997.41;15289127;19;20096;-81
2022/10/07 12:17:29;;;;;;;3.38;0.90;;;;;;;16.89;100.00;98983.41;15288859;19;20054;-82
2022/10/07 12:22:53;;;;;;;3.30;1.00;;;;;;;17.08;100.00;98971.97;15291795;19;20007;-82
2022/10/07 12:28:27;;;;;;;7.90;1.00;;;;;;;17.17;100.00;98975.44;15284987;19;20010;-83
2022/10/07 12:34:07;;;;;;;1.60;0.57;;;;;;;17.32;100.00;98950.06;15283459;19;20022;-81
2022/10/07 12:39:39;;;;;;;2.35;0.93;;;;;;;17.48;100.00;98947.09;15285822;19;20038;-78
2022/10/07 12:45:07;;;;;;;3.97;1.00;;;;;;;17.67;100.00;98925.69;15286587;19;20018;-79
2022/10/07 12:50:37;;;;;;;3.17;0.90;;;;;;;17.97;100.00;98920.09;15286704;19;20485;-80
2022/10/07 12:56:04;;;;;;;2.47;0.80;;;;;;;18.29;100.00;98920.56;15290825;19;20015;-80
2022/10/07 13:01:47;;;;;;;3.22;0.80;;;;;;;18.54;100.00;98910.03;15287352;19;20034;-81
2022/10/07 13:08:12;;;;;;;1.23;0.80;;;;;;;18.65;100.00;98900.41;15285625;19;20018;-82
2022/10/07 13:13:45;;;;;;;5.53;1.00;;;;;;;18.70;100.00;98891.66;15287858;19;20010;-82
2022/10/07 13:19:17;;;;;;;4.93;0.70;;;;;;;18.90;100.00;98887.09;15291025;19;20014;-85
2022/10/07 13:24:53;;;;;;;3.78;1.00;;;;;;;19.14;100.00;98875.84;15289206;19;20021;-84
2022/10/07 13:30:49;;;;;;;3.78;0.80;;;;;;;19.37;100.00;98857.19;15284428;19;20023;-83
2022/10/07 13:36:41;;;;;;;;;;;;;;;;;;;;;
2022/10/07 13:42:19;;;;;;;4.65;1.00;;;;;;;20.19;100.00;98837.03;15293161;19;20022;-84
2022/10/07 13:47:53;;;;;;;7.03;1.10;;;;;;;20.26;100.00;98832.38;15307305;19;20037;-85
2022/10/07 13:53:23;;;;;;;4.88;0.93;;;;;;;20.12;100.00;98822.53;15364658;19;20003;-84
2022/10/07 13:58:54;;;;;;;3.53;0.85;;;;;;;20.53;100.00;98806.81;15317455;19;20014;-81
2022/10/07 14:04:31;;;;;;;4.13;1.10;;;;;;;20.74;100.00;98798.34;15313387;19;20345;-82
2022/10/07 14:09:59;;;;;;;2.80;0.90;;;;;;;21.03;100.00;98798.81;15296828;19;20042;-80
2022/10/07 14:15:28;;;;;;;3.40;1.00;;;;;;;21.26;100.00;98791.91;15314010;19;20517;-79
2022/10/07 14:21:00;;;;;;;3.22;0.90;;;;;;;21.42;100.00;98785.03;15316198;19;20016;-79
2022/10/07 14:26:43;;;;;;;4.38;0.90;;;;;;;21.57;100.00;98779.22;15363901;19;20017;-82
2022/10/07 14:38:28;;;;;;;3.45;0.82;;;;;;;21.59;100.00;98762.53;15299186;19;20015;-81
2022/10/07 14:43:54;;;;;;;3.67;0.93;;;;;;;21.70;100.00;98748.97;15299550;19;20021;-81
2022/10/07 14:49:25;;;;;;;2.78;0.93;;;;;;;21.71;100.00;98741.56;15291948;19;20230;-77
2022/10/07 14:54:44;;;;;;;5.57;1.30;;;;;;;21.70;100.00;98739.88;15297006;19;20038;-81
2022/10/07 15:00:18;;;;;;;2.85;1.00;;;;;;;21.16;100.00;98739.50;15291942;19;20042;-80
2022/10/07 15:05:47;;;;;;;3.60;1.00;;;;;;;20.72;100.00;98739.34;15290590;19;20050;-84
2022/10/07 15:11:17;;;;;;;3.58;1.00;;;;;;;20.14;100.00;98733.72;15289680;19;20010;-79
2022/10/07 15:16:46;;;;;;;4.20;2.85;;;;;;;19.75;100.00;98729.16;15292340;19;20015;-79
2022/10/07 15:22:16;;;;;;;2.80;1.13;;;;;;;19.64;100.00;98726.03;15293714;19;20022;-80
2022/10/07 15:27:41;;;;;;;2.85;1.10;;;;;;;19.52;100.00;98720.38;15292125;19;20018;-81
2022/10/07 15:33:07;;;;;;;4.93;1.00;;;;;;;19.49;100.00;98714.50;15297287;19;20019;-79
2022/10/07 15:38:36;;;;;;;2.00;0.90;;;;;;;19.46;100.00;98715.75;15284490;19;20023;-79
2022/10/07 15:44:04;;;;;;;3.80;0.98;;;;;;;19.34;100.00;98721.03;15291043;19;20014;-78
2022/10/07 15:49:31;;;;;;;3.75;1.00;;;;;;;19.09;100.00;98713.47;15296426;19;20353;-79
2022/10/07 15:54:58;;;;;;;5.00;1.75;;;;;;;18.69;100.00;98710.66;15306001;19;20015;-82
2022/10/07 16:00:25;;;;;;;4.85;1.50;;;;;;;18.38;100.00;98709.34;15288052;19;20014;-82
2022/10/07 16:05:59;;;;;;;3.47;1.13;;;;;;;18.07;100.00;98704.38;15290847;19;20089;-79
2022/10/07 16:11:29;;;;;;;5.72;1.15;;;;;;;17.67;100.00;98708.53;15295913;19;20019;-85
2022/10/07 16:17:28;;;;;;;4.60;1.30;;;;;;;17.37;100.00;98703.34;15290756;19;20006;-80
2022/10/07 16:22:54;;;;;;;2.88;1.30;;;;;;;17.20;100.00;98707.38;15296394;19;20074;-79
2022/10/07 16:39:59;;;;;;;4.60;1.20;;;;;;;16.49;100.00;98692.69;15263675;19;20010;-56
2022/10/07 16:45:26;;;;;;;4.18;1.08;;;;;;;16.30;100.00;98696.88;15268689;19;20021;-57
2022/10/07 16:50:56;;;;;;;2.63;1.20;;;;;;;16.12;100.00;98711.69;15262904;19;20053;-58
2022/10/07 16:56:22;;;;;;;2.13;1.35;;;;;;;15.96;100.00;98715.47;15265360;19;20049;-57
2022/10/07 17:01:49;;;;;;;3.03;1.85;;;;;;;15.80;100.00;98710.22;15245179;19;20014;-59
2022/10/07 17:07:13;;;;;;;6.00;1.50;;;;;;;15.66;100.00;98703.75;15265023;19;20021;-58
2022/10/07 17:12:38;;;;;;;2.95;1.20;;;;;;;15.51;100.00;98715.47;15263013;19;20017;-58
2022/10/07 17:18:07;;;;;;;2.25;1.20;;;;;;;15.43;100.00;98714.72;15272201;19;20078;-56
2022/10/07 17:23:31;;;;;;;2.95;1.20;;;;;;;15.28;100.00;98715.53;15265849;19;20037;-54
2022/10/07 17:29:02;;;;;;;3.88;1.40;;;;;;;15.19;100.00;98719.34;15274883;19;20022;-52
2022/10/07 17:34:33;;;;;;;3.70;1.42;;;;;;;15.09;100.00;98717.75;15279140;19;20465;-53
2022/10/07 17:40:03;;;;;;;5.65;1.30;;;;;;;15.02;100.00;98715.94;15274127;19;20011;-54
2022/10/07 17:45:27;;;;;;;3.05;1.30;;;;;;;14.91;100.00;98720.78;15271739;19;20041;-53
2022/10/07 17:50:54;;;;;;;4.78;1.40;;;;;;;14.84;100.00;98708.13;15280659;19;20017;-55
2022/10/07 17:56:21;;;;;;;3.80;1.40;;;;;;;14.75;100.00;98710.91;15269362;19;20014;-52
2022/10/07 18:01:46;;;;;;;3.60;1.52;;;;;;;14.64;100.00;98708.56;15270475;19;20013;-55
2022/10/07 18:07:15;;;;;;;3.53;1.30;;;;;;;14.55;100.00;98720.47;15263336;19;20452;-53
2022/10/07 18:18:25;;;;;;;5.57;1.48;;;;;;;14.38;100.00;98715.19;15244216;19;20021;-55
2022/10/07 18:23:55;;;;;;;3.80;1.70;;;;;;;14.35;100.00;98714.69;15274282;19;20029;-50
2022/10/07 18:29:20;;;;;;;4.28;1.60;;;;;;;14.27;100.00;98713.72;15271340;19;20013;-51
2022/10/07 18:34:44;;;;;;;3.35;1.50;;;;;;;14.23;100.00;98709.66;15284287;19;20038;-53
2022/10/07 18:40:13;;;;;;;2.72;1.20;;;;;;;14.15;100.00;98709.69;15277932;19;20010;-52
2022/10/07 18:45:38;;;;;;;4.43;1.33;;;;;;;14.09;100.00;98700.41;15282396;19;20109;-53
2022/10/07 18:51:02;;;;;;;2.80;1.23;;;;;;;14.05;100.00;98701.81;15277151;19;20006;-53
2022/10/07 18:56:29;;;;;;;3.78;1.35;;;;;;;13.98;100.00;98698.97;15279758;19;20141;-53
2022/10/07 19:01:58;;;;;;;4.27;1.07;;;;;;;13.94;100.00;98702.19;15279126;19;20023;-56
2022/10/07 19:07:24;;;;;;;3.22;1.27;;;;;;;13.92;100.00;98690.69;15272755;19;20279;-54
2022/10/07 19:18:29;;;;;;;5.47;1.60;;;;;;;13.79;100.00;98692.09;15282616;19;20010;-55
2022/10/07 19:23:54;;;;;;;4.35;1.50;;;;;;;13.73;100.00;98694.66;15273709;19;20085;-54
2022/10/07 19:29:21;;;;;;;3.25;1.27;;;;;;;13.67;100.00;98680.78;15277183;19;20494;-53
2022/10/07 19:34:46;;;;;;;2.25;1.25;;;;;;;13.65;100.00;98679.28;15270899;19;20010;-53
2022/10/07 19:40:12;;;;;;;3.97;1.40;;;;;;;13.58;100.00;98681.03;15268107;19;20030;-52
2022/10/07 19:45:39;;;;;;;4.45;1.23;;;;;;;13.55;100.00;98671.38;15272083;19;20018;-50
2022/10/07 19:51:07;;;;;;;4.90;1.17;;;;;;;13.53;100.00;98673.41;15273113;19;20343;-53
2022/10/07 19:56:34;;;;;;;3.72;1.25;;;;;;;13.47;100.00;98658.69;15262385;19;20364;-53
2022/10/07 20:02:01;;;;;;;3.08;1.42;;;;;;;13.45;100.00;98655.34;15269716;19;20016;-59
2022/10/07 20:07:26;;;;;;;3.00;1.30;;;;;;;13.34;100.00;98645.69;15267109;19;20025;-52
2022/10/07 20:12:51;;;;;;;3.80;1.33;;;;;;;13.31;100.00;98654.16;15273184;19;20054;-55
2022/10/07 20:18:20;;;;;;;4.45;1.30;;;;;;;13.33;100.00;98664.81;15268675;19;20492;-55
2022/10/07 20:23:46;;;;;;;4.13;1.20;;;;;;;13.34;100.00;98658.41;15267797;19;20046;-52
2022/10/07 20:29:14;;;;;;;4.00;1.30;;;;;;;13.33;100.00;98645.88;15153693;19;2004138;-55
2022/10/07 20:34:49;;;;;;;2.50;1.20;;;;;;;13.31;100.00;98645.19;15262581;19;20353;-54
2022/10/07 20:45:58;;;;;;;2.25;1.10;;;;;;;13.28;100.00;98638.28;15262579;19;20018;-55
2022/10/07 20:51:25;;;;;;;3.65;1.15;;;;;;;13.17;100.00;98631.38;15268272;19;20025;-54
2022/10/07 20:56:53;;;;;;;4.22;1.48;;;;;;;13.05;100.00;98628.16;15264026;19;20020;-50
2022/10/07 21:02:18;;;;;;;4.47;1.30;;;;;;;12.95;100.00;98628.38;15267121;19;20017;-52
2022/10/07 21:07:46;;;;;;;2.25;1.30;;;;;;;12.92;100.00;98627.88;15259091;19;20029;-58
2022/10/07 21:13:13;;;;;;;2.33;1.17;;;;;;;12.88;100.00;98616.53;15269541;19;20014;-52
2022/10/07 21:18:38;;;;;;;3.28;1.25;;;;;;;12.86;100.00;98615.03;15266349;19;20010;-51
2022/10/07 21:24:06;;;;;;;5.10;1.48;;;;;;;12.81;100.00;98603.91;15265532;19;20018;-54
2022/10/07 21:29:32;;;;;;;3.95;1.90;;;;;;;12.76;100.00;98598.97;15259048;19;20713;-57
2022/10/07 21:35:04;;;;;;;2.97;2.05;;;;;;;12.73;100.00;98593.94;15266087;19;20098;-53
2022/10/07 21:40:31;;;;;;;3.30;1.85;;;;;;;12.71;100.00;98591.38;15257971;19;20042;-53
2022/10/07 21:45:56;;;;;;;2.47;1.50;;;;;;;12.67;100.00;98592.75;15263693;19;20010;-52
2022/10/07 21:51:21;;;;;;;3.20;1.35;;;;;;;12.68;100.00;98577.38;15267035;19;20018;-51
2022/10/07 21:56:50;;;;;;;3.72;1.50;;;;;;;12.70;100.00;98569.94;15260594;19;20363;-51
2022/10/07 22:02:15;;;;;;;3.65;1.40;;;;;;;12.71;100.00;98571.63;15258433;19;20040;-57
2022/10/07 22:13:19;;;;;;;3.60;1.40;;;;;;;12.79;100.00;98558.09;15274064;19;20021;-57
2022/10/07 22:18:45;;;;;;;3.20;1.20;;;;;;;12.82;100.00;98556.91;15280055;19;20018;-58
2022/10/07 22:24:11;;;;;;;3.80;1.45;;;;;;;12.85;100.00;98557.41;15275994;19;20015;-51
2022/10/07 22:29:38;;;;;;;4.07;1.27;;;;;;;12.85;100.00;98556.56;15277415;19;20049;-58
2022/10/07 22:40:44;;;;;;;2.42;1.23;;;;;;;12.88;100.00;98540.00;15273408;19;20014;-51
2022/10/07 22:46:13;;;;;;;2.65;1.20;;;;;;;12.89;100.00;98531.69;15268604;19;20017;-55
2022/10/07 22:51:37;;;;;;;3.47;1.30;;;;;;;12.90;100.00;98533.38;15277957;19;20010;-49
2022/10/07 22:57:02;;;;;;;1.98;1.20;;;;;;;12.91;100.00;98518.03;15271590;19;20019;-48
2022/10/07 23:02:29;;;;;;;2.90;1.40;;;;;;;12.92;100.00;98520.53;15275129;19;20018;-57
2022/10/07 23:07:55;;;;;;;5.57;1.25;;;;;;;12.90;100.00;98500.94;15268752;19;20015;-51
2022/10/07 23:13:22;;;;;;;2.00;1.20;;;;;;;12.86;100.00;98510.44;15275980;19;20086;-52
2022/10/07 23:18:52;;;;;;;3.90;1.30;;;;;;;12.81;100.00;98496.59;15271885;19;20028;-56
2022/10/07 23:24:18;;;;;;;2.80;1.40;;;;;;;12.75;100.00;98500.81;15273456;19;20014;-53
2022/10/07 23:29:43;;;;;;;3.70;1.40;;;;;;;12.67;100.00;98500.84;15271799;19;20819;-55
2022/10/07 23:35:10;;;;;;;3.25;1.50;;;;;;;12.58;100.00;98501.91;15275106;19;20015;-56
2022/10/07 23:40:36;;;;;;;7.28;1.75;;;;;;;12.47;100.00;98498.50;15263400;19;20085;-50
2022/10/07 23:46:00;;;;;;;2.65;1.50;;;;;;;12.46;100.00;98482.47;15270601;19;20720;-51
2022/10/07 23:51:30;;;;;;;2.38;1.48;;;;;;;12.36;100.00;98487.22;15270474;19;20018;-56
2022/10/07 23:56:55;;;;;;;3.95;1.60;;;;;;;12.31;100.00;98475.06;15269018;19;20022;-57
